createdAt,value
2016-11-06T11:05:12.078Z,225
2016-11-06T11:05:37.681Z,235
2016-11-06T11:06:03.239Z,230
2016-11-06T11:06:28.816Z,230
2016-11-06T11:06:54.369Z,235
2016-11-06T11:07:20.021Z,255
2016-11-06T11:07:45.581Z,240
2016-11-06T11:08:11.129Z,220
2016-11-06T11:08:36.671Z,210
2016-11-06T11:09:02.243Z,220
2016-11-06T11:09:27.889Z,235
2016-11-06T11:09:53.521Z,255
2016-11-06T11:10:19.097Z,245
2016-11-06T11:10:44.709Z,215
2016-11-06T11:11:10.258Z,230
2016-11-06T11:11:35.808Z,250
2016-11-06T11:12:01.351Z,240
2016-11-06T11:12:26.919Z,245
2016-11-06T11:12:52.514Z,250
2016-11-06T11:13:18.095Z,250
2016-11-06T11:13:43.724Z,245
2016-11-06T11:14:09.284Z,245
2016-11-06T11:14:34.844Z,225
2016-11-06T11:15:00.540Z,215
2016-11-06T11:15:26.193Z,215
2016-11-06T11:15:51.762Z,225
2016-11-06T11:16:17.379Z,240
2016-11-06T11:16:42.959Z,245
2016-11-06T11:17:08.537Z,245
2016-11-06T11:17:34.119Z,245
2016-11-06T11:17:59.782Z,275
2016-11-06T11:18:25.363Z,245
2016-11-06T11:18:50.929Z,200
2016-11-06T11:19:16.481Z,165
2016-11-06T11:19:42.050Z,140
2016-11-06T11:20:07.690Z,140
2016-11-06T11:20:33.214Z,135
2016-11-06T11:20:58.820Z,130
2016-11-06T11:21:24.426Z,130
2016-11-06T11:21:50.003Z,115
2016-11-06T11:22:15.575Z,105
2016-11-06T11:22:41.223Z,105
2016-11-06T11:23:06.783Z,105
2016-11-06T11:23:32.421Z,115
2016-11-06T11:23:58.029Z,115
2016-11-06T11:24:23.568Z,115
2016-11-06T11:24:49.223Z,115
2016-11-06T11:25:14.808Z,110
2016-11-06T11:25:40.409Z,110
2016-11-06T11:26:05.968Z,115
2016-11-06T11:26:31.546Z,115
2016-11-06T11:26:57.186Z,100
2016-11-06T11:27:22.832Z,95
2016-11-06T11:27:48.418Z,95
2016-11-06T11:28:13.991Z,95
2016-11-06T11:28:39.533Z,90
2016-11-06T11:29:05.175Z,85
2016-11-06T11:29:30.674Z,80
2016-11-06T11:29:56.236Z,75
2016-11-06T11:30:21.809Z,75
2016-11-06T11:30:47.386Z,80
2016-11-06T11:31:12.973Z,80
2016-11-06T11:31:38.544Z,80
2016-11-06T11:32:04.132Z,75
2016-11-06T11:32:29.793Z,75
2016-11-06T11:32:55.345Z,70
2016-11-06T11:33:20.941Z,75
2016-11-06T11:33:46.558Z,80
2016-11-06T11:34:12.194Z,75
2016-11-06T11:34:37.748Z,70
2016-11-06T11:35:03.326Z,75
2016-11-06T11:35:28.856Z,80
2016-11-06T11:35:54.439Z,90
2016-11-06T11:36:19.997Z,100
2016-11-06T11:36:45.558Z,115
2016-11-06T11:37:11.145Z,120
2016-11-06T11:37:36.741Z,125
2016-11-06T11:38:02.312Z,135
2016-11-06T11:38:27.904Z,140
2016-11-06T11:38:53.485Z,145
2016-11-06T11:39:19.104Z,160
2016-11-06T11:39:44.708Z,150
2016-11-06T11:40:10.268Z,125
2016-11-06T11:40:35.908Z,110
2016-11-06T11:41:01.594Z,105
2016-11-06T11:41:27.175Z,95
2016-11-06T11:41:52.748Z,100
2016-11-06T11:42:18.318Z,105
2016-11-06T11:42:43.869Z,105
2016-11-06T11:43:09.432Z,100
2016-11-06T11:43:35.050Z,100
2016-11-06T11:44:00.652Z,110
2016-11-06T11:44:26.192Z,120
2016-11-06T11:44:51.780Z,130
2016-11-06T11:45:17.367Z,135
2016-11-06T11:45:42.946Z,135
2016-11-06T11:46:08.503Z,130
2016-11-06T11:46:34.095Z,120
2016-11-06T11:46:59.655Z,120
2016-11-06T11:47:25.229Z,120
2016-11-06T11:47:50.798Z,130
2016-11-06T11:48:16.373Z,135
2016-11-06T11:48:41.943Z,135
2016-11-06T11:49:07.551Z,135
2016-11-06T11:49:33.096Z,145
2016-11-06T11:49:58.645Z,150
2016-11-06T11:50:24.216Z,155
2016-11-06T11:50:49.775Z,145
2016-11-06T11:51:15.410Z,120
2016-11-06T11:51:40.974Z,95
2016-11-06T11:52:06.557Z,85
2016-11-06T11:52:32.106Z,75
2016-11-06T11:52:57.674Z,70
2016-11-06T11:53:23.284Z,65
2016-11-06T11:53:48.856Z,60
2016-11-06T11:54:14.418Z,60
2016-11-06T11:54:40.057Z,60
2016-11-06T11:55:05.640Z,60
2016-11-06T11:55:31.220Z,55
2016-11-06T11:55:56.772Z,55
2016-11-06T11:56:22.475Z,55
2016-11-06T11:56:48.047Z,50
2016-11-06T11:57:13.603Z,45
2016-11-06T11:57:39.323Z,45
2016-11-06T11:58:04.898Z,45
2016-11-06T11:58:30.451Z,45
2016-11-06T11:58:56.041Z,45
2016-11-06T11:59:21.582Z,45
2016-11-06T11:59:47.138Z,45
2016-11-06T12:00:12.671Z,40
2016-11-06T12:00:38.238Z,40
2016-11-06T12:01:03.792Z,40
2016-11-06T12:01:29.458Z,40
2016-11-06T12:01:55.002Z,40
2016-11-06T12:02:20.550Z,40
2016-11-06T12:02:46.215Z,40
2016-11-06T12:03:11.776Z,40
2016-11-06T12:03:37.343Z,45
2016-11-06T12:04:02.947Z,45
2016-11-06T12:04:28.522Z,45
2016-11-06T12:04:54.083Z,45
2016-11-06T12:05:19.682Z,45
2016-11-06T12:05:45.228Z,45
2016-11-06T12:06:10.781Z,45
2016-11-06T12:06:36.403Z,45
2016-11-06T12:07:01.986Z,45
2016-11-06T12:07:27.538Z,40
2016-11-06T12:07:53.199Z,40
2016-11-06T12:08:18.772Z,40
2016-11-06T12:08:44.362Z,45
2016-11-06T12:09:10.045Z,45
2016-11-06T12:09:35.599Z,45
2016-11-06T12:10:01.169Z,45
2016-11-06T12:10:26.738Z,45
2016-11-06T12:11:40.322Z,45
2016-11-06T12:12:05.877Z,45
2016-11-06T12:12:31.453Z,45
2016-11-06T12:12:57.079Z,45
2016-11-06T12:13:22.650Z,50
2016-11-06T12:13:48.219Z,50
2016-11-06T12:14:13.840Z,50
2016-11-06T12:14:39.469Z,50
2016-11-06T12:15:05.051Z,55
2016-11-06T12:15:30.609Z,55
2016-11-06T12:15:56.253Z,55
2016-11-06T12:16:21.797Z,55
2016-11-06T12:16:47.363Z,55
2016-11-06T12:17:55.761Z,60
2016-11-06T12:18:21.335Z,60
2016-11-06T12:18:46.896Z,60
2016-11-06T12:19:12.465Z,55
2016-11-06T12:19:38.007Z,55
2016-11-06T12:20:03.581Z,55
2016-11-06T12:20:29.158Z,50
2016-11-06T12:20:54.723Z,50
2016-11-06T12:21:20.292Z,50
2016-11-06T12:21:45.898Z,45
2016-11-06T12:22:11.476Z,45
2016-11-06T12:22:37.086Z,45
2016-11-06T12:23:02.664Z,50
2016-11-06T12:23:28.310Z,45
2016-11-06T12:23:53.879Z,45
2016-11-06T12:24:19.441Z,45
2016-11-06T12:24:45.104Z,50
2016-11-06T12:25:10.669Z,50
2016-11-06T12:25:36.226Z,50
2016-11-06T12:26:01.766Z,50
2016-11-06T12:26:27.346Z,45
2016-11-06T12:26:52.892Z,45
2016-11-06T12:27:18.472Z,45
2016-11-06T12:27:44.053Z,45
2016-11-06T12:28:09.638Z,45
2016-11-06T12:28:35.281Z,45
2016-11-06T12:29:00.855Z,45
2016-11-06T12:29:26.417Z,45
2016-11-06T12:29:51.997Z,50
2016-11-06T12:30:17.700Z,50
2016-11-06T12:30:43.244Z,50
2016-11-06T12:31:08.812Z,55
2016-11-06T12:31:34.456Z,55
2016-11-06T12:32:00.010Z,60
2016-11-06T12:32:25.572Z,60
2016-11-06T12:32:51.308Z,65
2016-11-06T12:33:16.873Z,65
2016-11-06T12:33:42.460Z,65
2016-11-06T12:34:08.003Z,60
2016-11-06T12:34:33.584Z,60
2016-11-06T12:34:59.157Z,60
2016-11-06T12:35:24.725Z,55
2016-11-06T12:36:48.415Z,55
2016-11-06T12:37:13.974Z,55
2016-11-06T12:37:39.515Z,50
2016-11-06T12:38:05.054Z,50
2016-11-06T12:38:30.674Z,50
2016-11-06T12:38:56.202Z,50
2016-11-06T12:39:21.778Z,50
2016-11-06T12:39:47.331Z,55
2016-11-06T12:40:12.859Z,55
2016-11-06T12:40:38.418Z,50
2016-11-06T12:41:04.081Z,50
2016-11-06T12:41:29.629Z,45
2016-11-06T12:41:55.260Z,45
2016-11-06T12:42:20.814Z,45
2016-11-06T12:42:46.376Z,45
2016-11-06T12:43:11.927Z,45
2016-11-06T12:43:37.471Z,45
2016-11-06T12:44:03.066Z,45
2016-11-06T12:44:28.637Z,45
2016-11-06T12:44:54.281Z,40
2016-11-06T12:45:19.841Z,40
2016-11-06T12:45:45.427Z,40
2016-11-06T12:46:11.007Z,40
2016-11-06T12:46:36.553Z,35
2016-11-06T12:47:02.113Z,35
2016-11-06T12:47:27.703Z,35
2016-11-06T12:47:53.249Z,35
2016-11-06T12:48:18.833Z,35
2016-11-06T12:48:44.396Z,35
2016-11-06T12:49:09.950Z,30
2016-11-06T12:49:35.646Z,30
2016-11-06T12:50:01.206Z,30
2016-11-06T12:50:26.867Z,30
2016-11-06T12:50:52.456Z,30
2016-11-06T12:51:18.028Z,30
2016-11-06T12:51:43.606Z,30
2016-11-06T12:52:09.175Z,30
2016-11-06T12:52:34.732Z,30
2016-11-06T12:53:00.330Z,30
2016-11-06T12:53:25.879Z,25
2016-11-06T12:53:51.457Z,30
2016-11-06T12:54:17.012Z,30
2016-11-06T12:54:42.575Z,30
2016-11-06T12:55:08.204Z,30
2016-11-06T12:55:33.795Z,30
2016-11-06T12:55:59.345Z,30
2016-11-06T12:56:24.932Z,35
2016-11-06T12:56:50.509Z,35
2016-11-06T12:57:16.077Z,35
2016-11-06T12:57:41.639Z,40
2016-11-06T12:58:07.207Z,45
2016-11-06T12:58:32.821Z,50
2016-11-06T12:58:58.388Z,50
2016-11-06T12:59:23.957Z,55
2016-11-06T12:59:49.549Z,50
2016-11-06T13:00:15.195Z,50
2016-11-06T13:00:40.770Z,45
2016-11-06T13:01:06.317Z,45
2016-11-06T13:01:31.968Z,45
2016-11-06T13:01:57.506Z,40
2016-11-06T13:02:23.068Z,40
2016-11-06T13:02:48.780Z,40
2016-11-06T13:03:14.332Z,45
2016-11-06T13:03:39.891Z,45
2016-11-06T13:04:05.582Z,45
2016-11-06T13:04:31.190Z,40
2016-11-06T13:04:56.745Z,40
2016-11-06T13:05:22.324Z,40
2016-11-06T13:05:48.896Z,40
2016-11-06T13:06:14.466Z,40
2016-11-06T13:07:38.283Z,35
2016-11-06T13:08:03.865Z,35
2016-11-06T13:08:29.400Z,35
2016-11-06T13:08:54.956Z,35
2016-11-06T13:09:20.614Z,30
2016-11-06T13:09:46.206Z,30
2016-11-06T13:10:11.772Z,35
2016-11-06T13:10:37.351Z,35
2016-11-06T13:11:02.891Z,35
2016-11-06T13:11:28.476Z,35
2016-11-06T13:11:54.037Z,35
2016-11-06T13:12:19.612Z,35
2016-11-06T13:12:45.188Z,30
2016-11-06T13:13:10.769Z,30
2016-11-06T13:13:36.321Z,30
2016-11-06T13:14:01.961Z,30
2016-11-06T13:14:27.570Z,30
2016-11-06T13:14:53.137Z,30
2016-11-06T13:15:18.807Z,30
2016-11-06T13:15:44.396Z,30
2016-11-06T13:16:09.966Z,30
2016-11-06T13:16:35.644Z,30
2016-11-06T13:17:01.215Z,30
2016-11-06T13:17:26.780Z,30
2016-11-06T13:17:52.330Z,30
2016-11-06T13:18:17.900Z,30
2016-11-06T13:18:43.496Z,30
2016-11-06T13:19:09.062Z,30
2016-11-06T13:19:34.606Z,30
2016-11-06T13:20:00.177Z,25
2016-11-06T13:20:25.829Z,25
2016-11-06T13:20:51.391Z,25
2016-11-06T13:21:16.969Z,25
2016-11-06T13:21:42.513Z,25
2016-11-06T13:22:08.154Z,20
2016-11-06T13:22:33.715Z,20
2016-11-06T13:22:59.282Z,25
2016-11-06T13:23:24.958Z,25
2016-11-06T13:23:50.567Z,25
2016-11-06T13:24:16.108Z,20
2016-11-06T13:24:41.668Z,20
2016-11-06T13:25:07.386Z,20
2016-11-06T13:25:32.963Z,20
2016-11-06T13:25:58.527Z,20
2016-11-06T13:26:24.123Z,20
2016-11-06T13:26:49.733Z,25
2016-11-06T13:27:15.321Z,25
2016-11-06T13:28:23.633Z,20
2016-11-06T13:28:49.244Z,20
2016-11-06T13:29:14.801Z,20
2016-11-06T13:29:40.377Z,20
2016-11-06T13:30:06.050Z,20
2016-11-06T13:30:31.638Z,20
2016-11-06T13:30:57.279Z,20
2016-11-06T13:31:22.820Z,20
2016-11-06T13:31:48.402Z,20
2016-11-06T13:32:13.970Z,20
2016-11-06T13:32:39.516Z,20
2016-11-06T13:33:05.064Z,20
2016-11-06T13:33:30.643Z,25
2016-11-06T13:33:56.265Z,25
2016-11-06T13:34:21.809Z,25
2016-11-06T13:34:47.403Z,25
2016-11-06T13:35:12.969Z,25
2016-11-06T13:35:38.622Z,25
2016-11-06T13:36:04.207Z,25
2016-11-06T13:36:29.806Z,25
2016-11-06T13:36:55.390Z,25
2016-11-06T13:37:20.948Z,25
2016-11-06T13:37:46.620Z,25
2016-11-06T13:38:12.232Z,25
2016-11-06T13:38:37.791Z,25
2016-11-06T13:39:03.354Z,25
2016-11-06T13:39:29.074Z,20
2016-11-06T13:39:54.663Z,20
2016-11-06T13:40:20.263Z,20
2016-11-06T13:40:45.812Z,20
2016-11-06T13:41:11.451Z,20
2016-11-06T13:41:37.057Z,20
2016-11-06T13:42:02.612Z,20
2016-11-06T13:42:28.244Z,20
2016-11-06T13:42:53.806Z,15
2016-11-06T13:43:19.406Z,15
2016-11-06T13:43:44.966Z,15
2016-11-06T13:44:10.562Z,15
2016-11-06T13:44:36.126Z,15
2016-11-06T13:45:01.716Z,15
2016-11-06T13:45:27.288Z,15
2016-11-06T13:45:52.841Z,15
2016-11-06T13:46:18.398Z,15
2016-11-06T13:46:43.968Z,15
2016-11-06T13:47:09.539Z,15
2016-11-06T13:47:35.107Z,15
2016-11-06T13:48:00.689Z,15
2016-11-06T13:48:26.279Z,15
2016-11-06T13:48:51.994Z,15
2016-11-06T13:49:17.544Z,15
2016-11-06T13:49:43.096Z,15
2016-11-06T13:50:08.701Z,15
2016-11-06T13:50:34.273Z,15
2016-11-06T13:50:59.846Z,15
2016-11-06T13:51:25.447Z,20
2016-11-06T13:51:50.996Z,20
2016-11-06T13:52:16.557Z,20
2016-11-06T13:52:42.210Z,20
2016-11-06T13:53:07.766Z,20
2016-11-06T13:53:33.321Z,20
2016-11-06T13:53:59.019Z,20
2016-11-06T13:54:24.590Z,25
2016-11-06T13:54:50.167Z,25
2016-11-06T13:55:15.729Z,25
2016-11-06T13:55:41.405Z,25
2016-11-06T13:56:06.972Z,25
2016-11-06T13:56:32.625Z,25
2016-11-06T13:56:58.209Z,25
2016-11-06T13:57:23.774Z,25
2016-11-06T13:57:49.345Z,25
2016-11-06T13:58:14.920Z,20
2016-11-06T13:58:40.558Z,20
2016-11-06T13:59:06.142Z,20
2016-11-06T13:59:31.842Z,20
2016-11-06T13:59:57.390Z,20
2016-11-06T14:00:22.995Z,15
2016-11-06T14:00:48.619Z,15
2016-11-06T14:01:14.235Z,15
2016-11-06T14:01:39.848Z,15
2016-11-06T14:02:05.409Z,10
2016-11-06T14:02:31.001Z,10
2016-11-06T14:02:56.704Z,10
2016-11-06T14:03:22.306Z,10
2016-11-06T14:03:47.853Z,10
2016-11-06T14:04:13.424Z,10
2016-11-06T14:04:38.982Z,10
2016-11-06T14:05:04.555Z,10
2016-11-06T14:05:30.098Z,10
2016-11-06T14:05:55.728Z,10
2016-11-06T14:06:21.299Z,10
2016-11-06T14:06:46.875Z,5
2016-11-06T14:07:12.450Z,5
2016-11-06T14:07:37.996Z,10
2016-11-06T14:08:03.639Z,10
2016-11-06T14:08:29.220Z,10
2016-11-06T14:08:54.790Z,10
2016-11-06T14:09:20.476Z,10
2016-11-06T14:09:46.057Z,10
2016-11-06T14:10:11.668Z,10
2016-11-06T14:10:37.208Z,10
2016-11-06T14:11:02.853Z,15
2016-11-06T14:11:28.438Z,15
2016-11-06T14:11:54.051Z,15
2016-11-06T14:12:19.656Z,15
2016-11-06T14:12:45.226Z,15
2016-11-06T14:13:10.863Z,15
2016-11-06T14:13:36.430Z,15
2016-11-06T14:14:02.004Z,15
2016-11-06T14:14:27.578Z,15
2016-11-06T14:14:53.248Z,15
2016-11-06T14:15:18.821Z,15
2016-11-06T14:15:44.378Z,15
2016-11-06T14:16:09.958Z,15
2016-11-06T14:16:35.519Z,15
2016-11-06T14:17:01.123Z,15
2016-11-06T14:17:26.680Z,15
2016-11-06T14:17:52.280Z,15
2016-11-06T14:18:17.845Z,15
2016-11-06T14:18:43.444Z,15
2016-11-06T14:19:09.019Z,15
2016-11-06T14:19:34.578Z,15
2016-11-06T14:20:00.248Z,20
2016-11-06T14:20:25.817Z,20
2016-11-06T14:20:51.407Z,20
2016-11-06T14:21:16.999Z,20
2016-11-06T14:21:42.595Z,20
2016-11-06T14:22:08.129Z,25
2016-11-06T14:22:33.711Z,25
2016-11-06T14:22:59.368Z,25
2016-11-06T14:23:24.931Z,25
2016-11-06T14:23:50.549Z,25
2016-11-06T14:24:16.109Z,25
2016-11-06T14:24:41.669Z,25
2016-11-06T14:25:07.274Z,25
2016-11-06T14:25:32.831Z,25
2016-11-06T14:25:58.403Z,25
2016-11-06T14:26:23.977Z,25
2016-11-06T14:26:49.539Z,25
2016-11-06T14:27:15.103Z,25
2016-11-06T14:27:40.676Z,25
2016-11-06T14:28:06.426Z,25
2016-11-06T14:28:32.026Z,25
2016-11-06T14:28:57.645Z,25
2016-11-06T14:29:23.275Z,25
2016-11-06T14:29:48.822Z,25
2016-11-06T14:30:14.473Z,25
2016-11-06T14:30:40.063Z,25
2016-11-06T14:31:05.577Z,20
2016-11-06T14:31:31.123Z,20
2016-11-06T14:31:56.697Z,20
2016-11-06T14:33:10.322Z,15
2016-11-06T14:33:36.037Z,15
2016-11-06T14:34:01.617Z,15
2016-11-06T14:34:27.186Z,15
2016-11-06T14:34:52.759Z,15
2016-11-06T14:35:18.340Z,15
2016-11-06T14:35:43.908Z,15
2016-11-06T14:36:09.470Z,15
2016-11-06T14:36:35.057Z,15
2016-11-06T14:37:00.632Z,10
2016-11-06T14:37:26.260Z,10
2016-11-06T14:37:51.840Z,10
2016-11-06T14:38:17.410Z,10
2016-11-06T14:38:42.955Z,10
2016-11-06T14:39:08.511Z,10
2016-11-06T14:39:34.099Z,10
2016-11-06T14:39:59.660Z,10
2016-11-06T14:40:25.231Z,10
2016-11-06T14:40:50.839Z,5
2016-11-06T14:41:16.409Z,5
2016-11-06T14:41:41.970Z,5
2016-11-06T14:42:07.614Z,5
2016-11-06T14:42:33.284Z,5
2016-11-06T14:42:58.844Z,5
2016-11-06T14:43:24.419Z,5
2016-11-06T14:43:50.035Z,5
2016-11-06T14:44:15.588Z,5
2016-11-06T14:44:41.159Z,5
2016-11-06T14:45:06.747Z,5
2016-11-06T14:45:32.367Z,5
2016-11-06T14:45:57.914Z,5
2016-11-06T14:46:23.483Z,5
2016-11-06T14:46:49.043Z,5
2016-11-06T14:47:14.638Z,5
2016-11-06T14:47:40.225Z,5
2016-11-06T14:48:05.784Z,5
2016-11-06T14:48:31.352Z,5
2016-11-06T14:48:56.928Z,5
2016-11-06T14:49:22.629Z,5
2016-11-06T14:49:48.194Z,5
2016-11-06T14:50:13.748Z,5
2016-11-06T14:50:39.316Z,5
2016-11-06T14:51:04.883Z,5
2016-11-06T14:51:30.501Z,5
2016-11-06T14:51:56.050Z,5
2016-11-06T14:52:21.613Z,5
2016-11-06T14:52:47.156Z,5
2016-11-06T14:53:12.721Z,5
2016-11-06T14:53:38.291Z,5
2016-11-06T14:54:03.977Z,5
2016-11-06T14:54:29.563Z,5
2016-11-06T14:54:55.130Z,5
2016-11-06T14:55:20.742Z,5
2016-11-06T14:55:46.356Z,5
2016-11-06T14:56:11.920Z,5
2016-11-06T14:56:37.492Z,5
2016-11-06T14:57:03.045Z,5
2016-11-06T14:57:28.630Z,5
2016-11-06T14:57:54.195Z,5
2016-11-06T14:58:19.757Z,5
2016-11-06T14:58:45.337Z,5
2016-11-06T14:59:10.921Z,5
2016-11-06T14:59:36.525Z,5
2016-11-06T15:00:02.123Z,5
2016-11-06T15:00:27.698Z,5
2016-11-06T15:00:53.391Z,5
2016-11-06T15:01:18.987Z,5
2016-11-06T15:01:44.547Z,5
2016-11-06T15:02:10.190Z,5
2016-11-06T15:02:35.777Z,5
2016-11-06T15:03:01.334Z,5
2016-11-06T15:03:26.897Z,5
2016-11-06T15:03:52.461Z,5
2016-11-06T15:04:18.011Z,5
2016-11-06T15:04:43.560Z,5
2016-11-06T15:05:09.161Z,5
2016-11-06T15:05:34.741Z,5
2016-11-06T15:06:00.362Z,5
2016-11-06T15:06:25.937Z,5
2016-11-06T15:06:51.503Z,5
2016-11-06T15:07:17.164Z,5
2016-11-06T15:07:42.737Z,5
2016-11-06T15:08:08.325Z,5
2016-11-06T15:08:33.897Z,5
2016-11-06T15:08:59.489Z,5
2016-11-06T15:09:25.087Z,5
2016-11-06T15:09:50.669Z,5
2016-11-06T15:10:16.250Z,0
2016-11-06T15:10:41.830Z,0
2016-11-06T15:11:07.491Z,0
2016-11-06T15:11:33.145Z,0
2016-11-06T15:11:58.717Z,0
2016-11-06T15:12:24.291Z,0
2016-11-06T15:12:49.976Z,0
2016-11-06T15:13:15.549Z,0
2016-11-06T15:13:41.141Z,0
2016-11-06T15:14:06.709Z,0
2016-11-06T15:14:32.355Z,0
2016-11-06T15:14:57.914Z,0
2016-11-06T15:15:23.505Z,0
2016-11-06T15:15:49.059Z,0
2016-11-06T15:16:14.593Z,0
2016-11-06T15:16:40.160Z,0
2016-11-06T15:17:05.733Z,0
2016-11-06T15:17:31.305Z,0
2016-11-06T15:17:56.879Z,0
2016-11-06T15:18:22.440Z,0
2016-11-06T15:18:48.039Z,0
2016-11-06T15:19:13.626Z,0
2016-11-06T15:19:39.204Z,0
2016-11-06T15:20:04.792Z,0
2016-11-06T15:20:30.341Z,0
2016-11-06T15:20:55.925Z,0
2016-11-06T15:21:21.490Z,0
2016-11-06T15:21:47.133Z,0
2016-11-06T15:22:12.706Z,0
2016-11-06T15:22:38.251Z,0
2016-11-06T15:23:03.848Z,0
2016-11-06T15:23:29.400Z,0
2016-11-06T15:23:54.946Z,0
2016-11-06T15:24:20.509Z,0
2016-11-06T15:24:46.080Z,0
2016-11-06T15:25:11.635Z,0
2016-11-06T15:25:37.198Z,0
2016-11-06T15:26:02.778Z,0
2016-11-06T15:26:28.352Z,0
2016-11-06T15:26:53.899Z,0
2016-11-06T15:27:19.477Z,0
2016-11-06T15:27:45.091Z,0
2016-11-06T15:28:10.681Z,0
2016-11-06T15:28:36.251Z,0
2016-11-06T15:29:01.851Z,0
2016-11-06T15:29:27.426Z,0
2016-11-06T15:29:53.046Z,0
2016-11-06T15:30:18.618Z,0
2016-11-06T15:30:44.168Z,0
2016-11-06T15:31:09.731Z,0
2016-11-06T15:31:35.295Z,0
2016-11-06T15:32:00.862Z,0
2016-11-06T15:32:26.437Z,0
2016-11-06T15:32:52.060Z,0
2016-11-06T15:33:17.661Z,0
2016-11-06T15:33:43.239Z,0
2016-11-06T15:34:08.806Z,0
2016-11-06T15:34:34.400Z,0
2016-11-06T15:34:59.991Z,0
2016-11-06T15:35:25.539Z,0
2016-11-06T15:35:51.163Z,0
2016-11-06T15:36:16.725Z,0
2016-11-06T15:36:42.355Z,0
2016-11-06T15:37:07.885Z,0
2016-11-06T15:38:16.390Z,0
2016-11-06T15:38:41.962Z,0
2016-11-06T15:39:07.530Z,0
2016-11-06T15:39:33.100Z,0
2016-11-06T15:39:58.673Z,0
2016-11-06T15:40:24.248Z,0
2016-11-06T15:40:49.905Z,0
2016-11-06T15:41:15.465Z,0
2016-11-06T15:41:41.012Z,0
2016-11-06T15:42:06.671Z,0
2016-11-06T15:42:32.277Z,0
2016-11-06T15:42:57.830Z,0
2016-11-06T15:43:23.406Z,0
2016-11-06T15:43:49.113Z,0
2016-11-06T15:44:14.688Z,0
2016-11-06T15:44:40.280Z,0
2016-11-06T15:45:05.850Z,0
2016-11-06T15:45:31.503Z,0
2016-11-06T15:45:57.101Z,0
2016-11-06T15:46:22.679Z,0
2016-11-06T15:46:48.321Z,0
2016-11-06T15:47:13.919Z,0
2016-11-06T15:47:39.451Z,0
2016-11-06T15:48:05.051Z,0
2016-11-06T15:48:30.656Z,0
2016-11-06T15:48:56.229Z,0
2016-11-06T15:49:21.839Z,0
2016-11-06T15:49:47.411Z,0
2016-11-06T15:50:12.967Z,0
2016-11-06T15:50:38.558Z,0
2016-11-06T15:51:04.169Z,0
2016-11-06T15:51:29.736Z,0
2016-11-06T15:51:55.315Z,0
2016-11-06T15:52:20.887Z,0
2016-11-06T15:52:46.488Z,0
2016-11-06T15:53:12.129Z,0
2016-11-06T15:53:37.744Z,0
2016-11-06T15:54:03.334Z,0
2016-11-06T15:54:28.911Z,0
2016-11-06T15:54:54.515Z,0
2016-11-06T15:55:20.080Z,0
2016-11-06T15:55:45.640Z,0
2016-11-06T15:56:11.341Z,0
2016-11-06T15:56:36.914Z,0
2016-11-06T15:57:02.487Z,0
2016-11-06T15:57:28.056Z,0
2016-11-06T15:57:53.657Z,0
2016-11-06T15:58:19.232Z,0
2016-11-06T15:58:44.853Z,0
2016-11-06T15:59:10.503Z,0
2016-11-06T15:59:36.062Z,0
2016-11-06T16:00:01.639Z,0
2016-11-06T16:00:27.182Z,0
2016-11-06T16:00:52.756Z,0
2016-11-06T16:01:18.337Z,0
2016-11-06T16:01:43.891Z,0
2016-11-06T16:02:09.454Z,0
2016-11-06T16:02:35.037Z,0
2016-11-06T16:03:43.378Z,0
2016-11-06T16:05:50.780Z,0
2016-11-06T16:06:16.371Z,0
2016-11-06T16:06:41.918Z,0
2016-11-06T16:07:07.454Z,0
2016-11-06T16:07:33.016Z,0
2016-11-06T16:07:58.590Z,0
2016-11-06T16:08:24.145Z,0
2016-11-06T16:08:49.781Z,0
2016-11-06T16:09:15.384Z,0
2016-11-06T16:09:40.958Z,0
2016-11-06T16:10:06.539Z,0
2016-11-06T16:10:32.103Z,0
2016-11-06T16:10:57.675Z,0
2016-11-06T16:11:23.223Z,0
2016-11-06T16:11:48.790Z,0
2016-11-06T16:12:14.350Z,0
2016-11-06T16:12:39.947Z,0
2016-11-06T16:13:05.511Z,0
2016-11-06T16:13:31.088Z,0
2016-11-06T16:13:56.682Z,0
2016-11-06T16:14:22.237Z,0
2016-11-06T16:14:47.819Z,0
2016-11-06T16:15:13.388Z,0
2016-11-06T16:15:38.952Z,0
2016-11-06T16:16:04.530Z,0
2016-11-06T16:16:30.123Z,0
2016-11-06T16:16:55.704Z,0
2016-11-06T16:17:21.237Z,0
2016-11-06T16:18:29.633Z,0
2016-11-06T16:18:55.263Z,0
2016-11-06T16:19:20.913Z,0
2016-11-06T16:19:46.497Z,0
2016-11-06T16:20:12.055Z,0
2016-11-06T16:20:37.625Z,0
2016-11-06T16:21:03.195Z,0
2016-11-06T16:21:28.793Z,0
2016-11-06T16:21:54.354Z,0
2016-11-06T16:22:19.911Z,0
2016-11-06T16:22:45.478Z,0
2016-11-06T16:23:11.141Z,0
2016-11-06T16:24:24.581Z,0
2016-11-06T16:24:50.160Z,0
2016-11-06T16:25:15.759Z,0
2016-11-06T16:25:41.337Z,0
2016-11-06T16:26:06.915Z,0
2016-11-06T16:26:32.464Z,0
2016-11-06T16:26:58.042Z,0
2016-11-06T16:27:23.629Z,0
2016-11-06T16:27:49.227Z,0
2016-11-06T16:28:14.804Z,0
2016-11-06T16:28:40.372Z,0
2016-11-06T16:29:06.064Z,0
2016-11-06T16:29:31.642Z,0
2016-11-06T16:29:57.230Z,0
2016-11-06T16:30:22.788Z,0
2016-11-06T16:30:48.437Z,0
2016-11-06T16:31:14.047Z,0
2016-11-06T16:31:39.624Z,0
2016-11-06T16:32:05.191Z,0
2016-11-06T16:32:30.745Z,0
2016-11-06T16:32:56.338Z,0
2016-11-06T16:33:21.898Z,0
2016-11-06T16:33:47.478Z,0
2016-11-06T16:34:13.029Z,0
2016-11-06T16:34:38.639Z,0
2016-11-06T16:35:04.191Z,0
2016-11-06T16:35:29.761Z,0
2016-11-06T16:35:55.331Z,0
2016-11-06T16:36:20.925Z,0
2016-11-06T16:36:46.482Z,0
2016-11-06T16:37:12.144Z,0
2016-11-06T16:37:37.706Z,0
2016-11-06T16:38:03.271Z,0
2016-11-06T16:38:28.839Z,0
2016-11-06T16:38:54.413Z,0
2016-11-06T16:39:19.976Z,0
2016-11-06T16:39:45.529Z,0
2016-11-06T16:40:11.091Z,0
2016-11-06T16:40:36.790Z,0
2016-11-06T16:41:02.399Z,0
2016-11-06T16:41:27.960Z,0
2016-11-06T16:41:53.515Z,0
2016-11-06T16:42:19.088Z,0
2016-11-06T16:42:44.645Z,0
2016-11-06T16:43:10.228Z,0
2016-11-06T16:43:35.810Z,0
2016-11-06T16:44:01.386Z,0
2016-11-06T16:44:26.964Z,0
2016-11-06T16:44:52.537Z,0
2016-11-06T16:45:18.142Z,0
2016-11-06T16:45:43.826Z,0
2016-11-06T16:46:09.425Z,0
2016-11-06T16:46:34.989Z,0
2016-11-06T16:47:00.554Z,0
2016-11-06T16:47:26.196Z,0
2016-11-06T16:47:51.777Z,0
2016-11-06T16:48:17.340Z,0
2016-11-06T16:48:42.916Z,0
2016-11-06T16:49:08.470Z,0
2016-11-06T16:49:34.035Z,0
2016-11-06T16:49:59.577Z,0
2016-11-06T16:50:25.150Z,0
2016-11-06T16:50:50.759Z,0
2016-11-06T16:51:16.341Z,0
2016-11-06T16:51:41.929Z,0
2016-11-06T16:52:07.504Z,0
2016-11-06T16:52:33.160Z,0
2016-11-06T16:52:58.765Z,0
2016-11-06T16:53:24.353Z,0
2016-11-06T16:53:49.960Z,0
2016-11-06T16:54:15.584Z,0
2016-11-06T16:54:41.147Z,0
2016-11-06T16:55:06.748Z,0
2016-11-06T16:55:32.319Z,0
2016-11-06T16:55:57.898Z,0
2016-11-06T16:56:23.462Z,0
2016-11-06T16:56:49.042Z,0
2016-11-06T16:57:14.636Z,0
2016-11-06T16:57:40.203Z,0
2016-11-06T16:58:05.771Z,0
2016-11-06T16:58:31.353Z,0
2016-11-06T16:58:56.944Z,0
2016-11-06T16:59:22.512Z,0
2016-11-06T16:59:48.076Z,0
2016-11-06T17:00:13.654Z,0
2016-11-06T17:00:39.247Z,0
2016-11-06T17:01:04.822Z,0
2016-11-06T17:01:30.373Z,0
2016-11-06T17:01:55.951Z,0
2016-11-06T17:02:21.541Z,0
2016-11-06T17:02:47.120Z,0
2016-11-06T17:03:12.709Z,0
2016-11-06T17:03:38.262Z,0
2016-11-06T17:04:03.936Z,0
2016-11-06T17:04:29.551Z,0
